Time;durP1;ratioP1;P1;durP2;ratioP2;P2;SDS_P1;SDS_P2;PMS_P1;PMS_P2;Temp;Humidity;BMP_temperature;BMP_pressure;BME280_temperature;BME280_humidity;BME280_pressure;Samples;Min_cycle;Max_cycle;Signal;HPM_P1;HPM_P2
2022/03/17 00:02:20;;;;;;;29.15;16.27;;;12.50;63.90;;;;;;9178038;19;20019;-69
2022/03/17 00:05:25;;;;;;;26.92;14.85;;;12.50;63.90;;;;;;9179349;19;20066;-68
2022/03/17 00:08:30;;;;;;;28.05;16.33;;;12.50;63.90;;;;;;9181805;19;20011;-68
2022/03/17 00:11:35;;;;;;;27.90;15.88;;;12.50;64.00;;;;;;9181325;19;20374;-67
2022/03/17 00:14:40;;;;;;;28.60;16.50;;;12.40;63.90;;;;;;9183943;19;20049;-69
2022/03/17 00:17:48;;;;;;;25.10;15.65;;;12.40;63.90;;;;;;9181453;19;20491;-66
2022/03/17 00:20:53;;;;;;;25.27;15.90;;;12.40;63.90;;;;;;9182864;19;20014;-68
2022/03/17 00:23:58;;;;;;;29.63;16.13;;;12.40;64.00;;;;;;9179973;19;20510;-68
2022/03/17 00:27:03;;;;;;;29.67;15.73;;;12.40;64.20;;;;;;9182860;19;20015;-68
2022/03/17 00:30:10;;;;;;;31.85;16.75;;;12.40;64.00;;;;;;9180597;19;20051;-68
2022/03/17 00:33:18;;;;;;;27.08;16.35;;;12.40;64.00;;;;;;9180595;19;20022;-67
2022/03/17 00:36:23;;;;;;;31.73;17.60;;;12.40;64.00;;;;;;9180664;19;20329;-68
2022/03/17 00:39:28;;;;;;;29.88;17.33;;;12.40;64.00;;;;;;9179487;19;20022;-68
2022/03/17 00:42:33;;;;;;;28.77;17.17;;;12.40;64.10;;;;;;9178610;19;20021;-67
2022/03/17 00:45:38;;;;;;;28.58;15.90;;;12.40;64.10;;;;;;9179345;19;20019;-69
2022/03/17 00:48:46;;;;;;;27.67;16.23;;;12.40;64.10;;;;;;9180060;19;20014;-68
2022/03/17 00:51:51;;;;;;;29.50;16.73;;;12.40;64.10;;;;;;9179534;19;20101;-68
2022/03/17 00:54:57;;;;;;;27.80;16.85;;;12.40;64.10;;;;;;9178865;19;20018;-68
2022/03/17 00:58:02;;;;;;;29.10;16.75;;;12.40;64.20;;;;;;9179107;19;20019;-69
2022/03/17 01:01:08;;;;;;;33.97;16.80;;;12.40;64.20;;;;;;9181238;19;20405;-67
2022/03/17 01:04:16;;;;;;;28.70;16.88;;;12.40;64.20;;;;;;9176324;19;20859;-69
2022/03/17 01:07:21;;;;;;;26.42;16.58;;;12.40;64.20;;;;;;9178023;19;20014;-68
2022/03/17 01:10:26;;;;;;;34.33;17.23;;;12.40;64.20;;;;;;9180217;19;20372;-69
2022/03/17 01:13:31;;;;;;;25.73;16.15;;;12.30;64.20;;;;;;9179982;19;20021;-68
2022/03/17 01:16:36;;;;;;;28.80;17.63;;;12.30;64.30;;;;;;9177881;19;20029;-67
2022/03/17 01:19:44;;;;;;;32.33;17.55;;;12.30;64.30;;;;;;9180368;19;20015;-68
2022/03/17 01:22:49;;;;;;;30.75;17.00;;;12.30;64.40;;;;;;9179014;19;20015;-68
2022/03/17 01:25:54;;;;;;;27.60;17.05;;;12.30;64.40;;;;;;9177677;19;20026;-67
2022/03/17 01:28:59;;;;;;;29.02;17.98;;;12.30;64.50;;;;;;9178320;19;20482;-68
2022/03/17 01:32:04;;;;;;;36.53;17.48;;;12.30;64.50;;;;;;9180557;19;20014;-69
2022/03/17 01:35:13;;;;;;;26.95;17.42;;;12.30;64.60;;;;;;9176055;19;20018;-67
2022/03/17 01:38:18;;;;;;;26.80;16.38;;;12.30;64.70;;;;;;9180873;19;20018;-68
2022/03/17 01:41:23;;;;;;;31.55;18.05;;;12.30;64.70;;;;;;9176376;19;20851;-70
2022/03/17 01:44:28;;;;;;;32.42;18.73;;;12.30;64.80;;;;;;9175369;19;20032;-69
2022/03/17 01:47:33;;;;;;;34.03;18.85;;;12.30;64.90;;;;;;9177426;19;20017;-68
2022/03/17 01:50:41;;;;;;;31.20;18.83;;;12.20;65.00;;;;;;9177645;19;20364;-68
2022/03/17 01:53:47;;;;;;;30.45;17.42;;;12.20;65.10;;;;;;9178691;19;20014;-68
2022/03/17 01:56:52;;;;;;;27.38;17.13;;;12.20;65.10;;;;;;9176202;19;20491;-67
2022/03/17 01:59:57;;;;;;;29.95;18.40;;;12.20;65.10;;;;;;9176489;19;20018;-67
2022/03/17 02:03:03;;;;;;;29.05;18.30;;;12.20;65.20;;;;;;9173349;19;20011;-67
2022/03/17 02:06:11;;;;;;;29.83;18.02;;;12.20;65.20;;;;;;9178895;19;20014;-70
2022/03/17 02:09:16;;;;;;;28.63;17.48;;;12.20;65.30;;;;;;9175304;19;20492;-67
2022/03/17 02:15:44;;;;;;;30.58;18.88;;;12.10;65.30;;;;;;9175243;19;20014;-68
2022/03/17 02:18:49;;;;;;;30.75;18.27;;;12.20;65.40;;;;;;9177796;19;20048;-68
2022/03/17 02:21:57;;;;;;;32.20;19.48;;;12.10;65.50;;;;;;9176214;19;20483;-69
2022/03/17 02:28:29;;;;;;;31.70;18.67;;;12.10;65.60;;;;;;9176285;19;20486;-68
2022/03/17 02:31:34;;;;;;;30.92;18.63;;;12.10;65.60;;;;;;9175777;19;20037;-67
2022/03/17 02:34:40;;;;;;;28.10;18.05;;;12.10;65.60;;;;;;9173708;19;20018;-67
2022/03/17 02:37:45;;;;;;;31.63;19.02;;;12.00;65.60;;;;;;9176998;19;20026;-67
2022/03/17 02:40:55;;;;;;;28.90;18.73;;;12.00;65.70;;;;;;9177427;19;20018;-69
2022/03/17 02:44:00;;;;;;;33.75;19.15;;;12.00;65.80;;;;;;9174013;19;21054;-69
2022/03/17 02:47:05;;;;;;;32.08;19.23;;;12.00;65.80;;;;;;9175698;19;20018;-70
2022/03/17 02:50:12;;;;;;;28.60;18.48;;;12.00;65.80;;;;;;9174556;19;20014;-67
2022/03/17 02:53:18;;;;;;;37.17;18.58;;;12.00;65.90;;;;;;9174525;19;20021;-68
2022/03/17 02:56:26;;;;;;;29.30;17.90;;;12.00;65.90;;;;;;9175013;19;20014;-70
2022/03/17 02:59:31;;;;;;;33.75;18.77;;;12.00;65.90;;;;;;9174999;19;20018;-68
2022/03/17 03:02:36;;;;;;;34.67;19.45;;;12.00;65.90;;;;;;9174314;19;20341;-67
2022/03/17 03:05:41;;;;;;;36.47;19.98;;;12.00;65.90;;;;;;9177279;19;20347;-68
2022/03/17 03:08:47;;;;;;;29.45;18.48;;;12.00;66.00;;;;;;9178881;19;20018;-68
2022/03/17 03:11:55;;;;;;;30.30;19.15;;;12.10;66.00;;;;;;9185348;19;20014;-67
2022/03/17 03:15:00;;;;;;;32.53;19.15;;;12.00;66.00;;;;;;9183359;19;20407;-68
2022/03/17 03:18:05;;;;;;;33.92;20.23;;;12.00;66.00;;;;;;9184077;19;20063;-68
2022/03/17 03:21:10;;;;;;;33.78;19.10;;;12.10;66.10;;;;;;9185308;19;20368;-67
2022/03/17 03:24:17;;;;;;;31.33;19.00;;;12.10;66.10;;;;;;9182836;19;20030;-69
2022/03/17 03:27:27;;;;;;;31.75;19.65;;;12.10;66.10;;;;;;9184811;19;20015;-68
2022/03/17 03:30:32;;;;;;;37.00;20.17;;;12.10;66.10;;;;;;9185304;19;20026;-68
2022/03/17 03:33:37;;;;;;;31.75;19.85;;;12.10;66.10;;;;;;9177891;19;20054;-67
2022/03/17 03:40:00;;;;;;;33.85;20.80;;;12.20;66.10;;;;;;9182998;19;20022;-68
2022/03/17 03:43:08;;;;;;;32.08;19.95;;;12.10;66.10;;;;;;9181981;19;20479;-68
2022/03/17 03:46:14;;;;;;;33.55;18.83;;;12.10;66.10;;;;;;9182362;19;20022;-69
2022/03/17 03:49:19;;;;;;;32.22;21.33;;;12.20;66.20;;;;;;9183407;19;20086;-68
2022/03/17 03:52:24;;;;;;;37.38;21.95;;;12.20;66.20;;;;;;9182606;19;20022;-69
2022/03/17 03:55:29;;;;;;;31.27;21.08;;;12.20;66.20;;;;;;9182869;19;20014;-67
2022/03/17 03:58:37;;;;;;;34.75;21.55;;;12.20;66.20;;;;;;9181799;19;20026;-68
2022/03/17 04:01:42;;;;;;;36.30;20.20;;;12.30;66.40;;;;;;9183097;19;20376;-67
2022/03/17 04:04:48;;;;;;;34.33;19.77;;;12.30;66.30;;;;;;9179508;19;20025;-68
2022/03/17 04:07:54;;;;;;;30.75;20.00;;;12.30;66.30;;;;;;9180779;19;20014;-69
2022/03/17 04:11:00;;;;;;;37.80;20.95;;;12.30;66.30;;;;;;9183213;19;20374;-68
2022/03/17 04:14:08;;;;;;;36.38;22.15;;;12.30;66.30;;;;;;9182086;19;20360;-67
2022/03/17 04:17:13;;;;;;;31.60;20.75;;;12.30;66.30;;;;;;9183035;19;20355;-69
2022/03/17 04:20:18;;;;;;;38.05;21.90;;;12.30;66.30;;;;;;9180138;19;20110;-70
2022/03/17 04:23:23;;;;;;;38.17;20.63;;;12.30;66.40;;;;;;9181682;19;20026;-67
2022/03/17 04:26:28;;;;;;;38.47;21.88;;;12.30;66.40;;;;;;9181616;19;20022;-68
2022/03/17 04:29:36;;;;;;;32.30;20.27;;;12.40;66.50;;;;;;9180277;19;20374;-67
2022/03/17 04:32:41;;;;;;;41.10;23.35;;;12.40;66.50;;;;;;9177541;19;20018;-68
2022/03/17 04:35:46;;;;;;;41.92;23.38;;;12.40;66.50;;;;;;9176283;19;20444;-68
2022/03/17 04:38:51;;;;;;;39.55;23.67;;;12.40;66.60;;;;;;9182091;19;20017;-66
2022/03/17 04:41:56;;;;;;;39.78;23.52;;;12.40;66.80;;;;;;9182489;19;20430;-69
2022/03/17 04:45:05;;;;;;;42.60;24.60;;;12.40;66.90;;;;;;9178903;19;20677;-67
2022/03/17 04:48:10;;;;;;;42.33;25.45;;;12.40;67.10;;;;;;9180513;19;20014;-68
2022/03/17 04:51:15;;;;;;;50.40;25.65;;;12.50;67.20;;;;;;9178881;19;20056;-68
2022/03/17 04:54:20;;;;;;;49.08;25.48;;;12.50;67.30;;;;;;9180611;19;20356;-69
2022/03/17 04:57:26;;;;;;;48.75;25.50;;;12.50;67.50;;;;;;9179307;19;20015;-67
2022/03/17 05:00:34;;;;;;;49.00;25.38;;;12.50;67.70;;;;;;9178634;19;20022;-69
2022/03/17 05:03:39;;;;;;;48.50;26.85;;;12.50;67.90;;;;;;9179424;19;20019;-68
2022/03/17 05:06:45;;;;;;;43.20;27.10;;;12.50;68.00;;;;;;9180170;19;20922;-67
2022/03/17 05:09:50;;;;;;;48.45;27.55;;;12.50;68.10;;;;;;9179080;19;20360;-67
2022/03/17 05:12:55;;;;;;;44.65;26.80;;;12.40;68.20;;;;;;9178304;19;20483;-69
2022/03/17 05:16:02;;;;;;;50.00;28.10;;;12.50;68.40;;;;;;9178753;19;20025;-67
2022/03/17 05:19:07;;;;;;;40.95;26.40;;;12.40;68.70;;;;;;9177417;19;20356;-68
2022/03/17 05:22:12;;;;;;;50.80;26.90;;;12.40;68.70;;;;;;9180824;19;20010;-68
2022/03/17 05:25:17;;;;;;;44.97;27.10;;;12.40;68.80;;;;;;9176779;19;20026;-68
2022/03/17 05:28:22;;;;;;;50.10;28.13;;;12.40;69.00;;;;;;9175314;19;20023;-68
2022/03/17 05:31:30;;;;;;;52.28;29.08;;;12.40;69.10;;;;;;9175663;19;20463;-67
2022/03/17 05:34:35;;;;;;;43.80;25.55;;;12.30;69.30;;;;;;9175508;19;20018;-67
2022/03/17 05:37:40;;;;;;;45.40;25.85;;;12.30;69.40;;;;;;9178168;19;20018;-67
2022/03/17 05:40:46;;;;;;;25.50;13.05;;;12.30;69.50;;;;;;9176941;19;20018;-66
2022/03/17 05:43:50;;;;;;;14.05;7.95;;;12.30;69.60;;;;;;9177904;19;20052;-66
2022/03/17 05:46:58;;;;;;;12.73;5.25;;;12.20;69.60;;;;;;9178883;19;20025;-67
2022/03/17 05:50:03;;;;;;;6.03;4.50;;;12.20;69.70;;;;;;9176338;19;20014;-66
2022/03/17 05:53:09;;;;;;;5.93;3.30;;;12.10;69.50;;;;;;9178123;19;20475;-65
2022/03/17 05:56:14;;;;;;;6.32;3.15;;;12.00;69.50;;;;;;9176878;19;20348;-67
2022/03/17 05:59:20;;;;;;;4.53;3.10;;;12.00;69.50;;;;;;9178557;19;20368;-68
2022/03/17 06:02:27;;;;;;;4.93;3.43;;;11.90;69.50;;;;;;9178961;19;20021;-66
2022/03/17 06:05:33;;;;;;;5.00;3.20;;;11.80;69.50;;;;;;9178401;19;20021;-67
2022/03/17 06:08:38;;;;;;;7.35;4.03;;;11.70;70.20;;;;;;9177149;19;20022;-67
2022/03/17 06:11:43;;;;;;;6.45;3.80;;;11.60;69.60;;;;;;9178333;19;20034;-67
2022/03/17 06:14:48;;;;;;;9.48;5.00;;;11.60;69.70;;;;;;9179167;19;20045;-67
2022/03/17 06:17:57;;;;;;;8.85;4.60;;;11.50;69.70;;;;;;9176610;19;20323;-67
2022/03/17 06:21:02;;;;;;;7.65;4.63;;;11.40;69.80;;;;;;9175845;19;20082;-67
2022/03/17 06:24:08;;;;;;;10.77;4.60;;;11.40;69.80;;;;;;9173490;19;20696;-66
2022/03/17 06:27:13;;;;;;;10.20;5.20;;;11.30;69.80;;;;;;9175442;19;20026;-67
2022/03/17 06:30:20;;;;;;;9.77;4.97;;;11.30;69.80;;;;;;9175626;19;20018;-66
2022/03/17 06:33:29;;;;;;;12.32;4.55;;;11.20;69.90;;;;;;9171994;19;20015;-67
2022/03/17 06:36:34;;;;;;;10.05;5.35;;;11.20;70.00;;;;;;9176406;19;20010;-66
2022/03/17 06:39:39;;;;;;;14.80;5.75;;;11.10;70.00;;;;;;9176058;19;20047;-67
2022/03/17 06:42:45;;;;;;;9.13;5.28;;;11.00;70.00;;;;;;9179910;19;20018;-65
2022/03/17 06:45:50;;;;;;;13.77;5.25;;;11.00;70.10;;;;;;9182109;19;20010;-67
2022/03/17 06:48:58;;;;;;;11.05;6.40;;;10.90;70.10;;;;;;9185161;19;20013;-67
2022/03/17 06:52:03;;;;;;;10.00;5.72;;;10.90;70.30;;;;;;9185629;19;20007;-67
2022/03/17 06:55:09;;;;;;;12.57;5.72;;;10.80;70.30;;;;;;9184323;19;20014;-67
2022/03/17 06:58:14;;;;;;;14.60;5.18;;;10.80;70.30;;;;;;9184635;19;20026;-67
2022/03/17 07:01:20;;;;;;;18.10;5.32;;;10.70;70.30;;;;;;9184105;19;20097;-68
2022/03/17 07:04:28;;;;;;;17.85;5.47;;;10.70;70.50;;;;;;9181973;19;20018;-67
2022/03/17 07:07:33;;;;;;;22.38;5.25;;;10.70;70.50;;;;;;9184784;19;20483;-67
2022/03/17 07:10:38;;;;;;;22.20;4.85;;;10.60;70.50;;;;;;9185397;19;20022;-65
2022/03/17 07:13:43;;;;;;;12.65;4.60;;;10.60;70.50;;;;;;9183119;19;20018;-68
2022/03/17 07:16:48;;;;;;;12.05;4.35;;;10.50;70.50;;;;;;9175758;19;20022;-67
2022/03/17 07:23:01;;;;;;;12.32;2.60;;;10.40;70.50;;;;;;9177264;19;20079;-69
2022/03/17 07:26:06;;;;;;;12.35;2.80;;;10.40;70.60;;;;;;9177780;19;20019;-66
2022/03/17 07:29:15;;;;;;;10.60;2.55;;;10.40;70.60;;;;;;9179586;19;20535;-66
2022/03/17 07:32:22;;;;;;;12.07;2.53;;;10.30;70.70;;;;;;9178580;19;20018;-66
2022/03/17 07:35:30;;;;;;;13.77;3.50;;;10.30;70.60;;;;;;9161954;19;20025;-69
2022/03/17 07:38:35;;;;;;;9.63;2.78;;;10.20;70.60;;;;;;9167075;19;20015;-67
2022/03/17 07:41:40;;;;;;;13.02;3.22;;;10.20;70.70;;;;;;9168611;19;20034;-65
2022/03/17 07:44:45;;;;;;;13.20;2.25;;;10.20;70.70;;;;;;9170197;19;20448;-67
2022/03/17 07:48:16;;;;;;;9.55;2.45;;;10.20;70.80;;;;;;9172177;19;20018;-67
2022/03/17 07:51:37;;;;;;;8.13;1.73;;;10.10;70.80;;;;;;9177744;19;20014;-67
2022/03/17 07:54:42;;;;;;;16.58;2.97;;;10.10;70.80;;;;;;9174145;19;20360;-67
2022/03/17 07:57:48;;;;;;;10.35;1.77;;;10.10;70.80;;;;;;9178580;19;21714;-67
2022/03/17 08:00:54;;;;;;;15.48;2.50;;;10.10;70.80;;;;;;9171871;19;20023;-67
2022/03/17 08:03:59;;;;;;;10.63;2.58;;;10.10;70.90;;;;;;9172440;19;20085;-67
2022/03/17 08:07:07;;;;;;;17.83;3.28;;;10.10;70.90;;;;;;9182327;19;20487;-68
2022/03/17 08:10:15;;;;;;;13.90;2.35;;;10.10;70.90;;;;;;9183609;19;20021;-68
2022/03/17 08:13:25;;;;;;;14.98;2.90;;;10.10;70.90;;;;;;9185117;19;20014;-69
2022/03/17 08:16:30;;;;;;;10.15;3.30;;;10.10;70.90;;;;;;9183277;19;20033;-69
2022/03/17 08:19:40;;;;;;;10.05;2.70;;;10.10;71.00;;;;;;9185996;19;20129;-67
2022/03/17 08:22:49;;;;;;;10.25;2.50;;;10.10;71.00;;;;;;9184510;19;20021;-68
2022/03/17 08:25:54;;;;;;;11.23;2.50;;;10.00;71.00;;;;;;9181259;19;20343;-67
2022/03/17 08:29:00;;;;;;;12.95;3.05;;;10.00;71.00;;;;;;9181843;19;20018;-68
2022/03/17 08:32:06;;;;;;;16.05;2.22;;;10.00;71.00;;;;;;9182571;19;20025;-67
2022/03/17 08:35:14;;;;;;;10.60;1.85;;;10.00;71.10;;;;;;9180418;19;20030;-68
2022/03/17 08:38:22;;;;;;;12.18;2.10;;;10.00;71.10;;;;;;9182371;19;20131;-68
2022/03/17 08:41:27;;;;;;;17.05;2.13;;;10.00;71.10;;;;;;9176753;19;20029;-68
2022/03/17 08:44:31;;;;;;;17.70;3.05;;;10.00;71.10;;;;;;9184218;19;20048;-68
2022/03/17 08:50:54;;;;;;;16.40;2.35;;;10.00;71.10;;;;;;9182202;19;20412;-68
2022/03/17 08:54:02;;;;;;;10.45;2.20;;;10.00;71.10;;;;;;9182427;19;20018;-67
2022/03/17 08:57:07;;;;;;;10.93;1.95;;;10.00;71.10;;;;;;9184350;19;20598;-70
2022/03/17 09:00:15;;;;;;;16.92;2.40;;;10.00;71.20;;;;;;9181144;19;20010;-67
2022/03/17 09:03:21;;;;;;;18.30;4.05;;;9.90;71.10;;;;;;9182400;19;20018;-68
2022/03/17 09:06:27;;;;;;;8.80;2.22;;;9.90;71.10;;;;;;9181457;19;20018;-68
2022/03/17 09:09:36;;;;;;;17.35;2.55;;;9.90;71.80;;;;;;9178943;19;20388;-68
2022/03/17 09:12:41;;;;;;;16.38;2.63;;;9.90;71.20;;;;;;9176996;19;20025;-67
2022/03/17 09:15:47;;;;;;;11.45;2.90;;;9.90;71.10;;;;;;9180714;19;20014;-68
2022/03/17 09:18:52;;;;;;;17.67;2.78;;;9.90;71.10;;;;;;9182640;19;20019;-68
2022/03/17 09:21:57;;;;;;;11.10;2.30;;;9.90;71.00;;;;;;9178215;19;20448;-66
2022/03/17 09:25:05;;;;;;;17.88;2.17;;;9.90;71.00;;;;;;9180000;19;20014;-67
2022/03/17 09:28:10;;;;;;;16.98;3.42;;;9.90;71.00;;;;;;9179690;19;20324;-70
2022/03/17 09:31:15;;;;;;;18.38;2.33;;;9.90;70.90;;;;;;9178025;19;20021;-69
2022/03/17 09:34:20;;;;;;;11.13;1.90;;;9.90;71.00;;;;;;9176066;19;20010;-69
2022/03/17 09:37:25;;;;;;;12.00;2.63;;;9.90;70.90;;;;;;9181634;19;20595;-67
2022/03/17 09:40:32;;;;;;;18.85;2.20;;;9.90;70.90;;;;;;9181067;19;20766;-68
2022/03/17 09:43:39;;;;;;;13.48;1.67;;;9.90;70.90;;;;;;9180119;19;20037;-69
2022/03/17 09:46:46;;;;;;;14.18;1.65;;;9.90;70.80;;;;;;9179359;19;20021;-68
2022/03/17 09:49:53;;;;;;;11.70;2.28;;;9.90;70.80;;;;;;9182100;19;20014;-68
2022/03/17 09:52:59;;;;;;;15.90;2.97;;;10.00;70.80;;;;;;9180518;19;20021;-68
2022/03/17 09:56:07;;;;;;;19.70;2.03;;;10.00;70.80;;;;;;9180024;19;20479;-68
2022/03/17 09:59:12;;;;;;;16.92;3.10;;;10.10;70.70;;;;;;9180083;19;20011;-68
2022/03/17 10:02:19;;;;;;;15.35;2.35;;;10.10;70.60;;;;;;9179488;19;20010;-69
2022/03/17 10:05:25;;;;;;;15.80;2.40;;;10.10;70.50;;;;;;9178591;19;20057;-69
2022/03/17 10:08:31;;;;;;;12.50;2.00;;;10.20;70.50;;;;;;9174556;19;20025;-68
2022/03/17 10:11:40;;;;;;;16.08;2.20;;;10.20;70.40;;;;;;9179296;19;20030;-68
2022/03/17 10:14:48;;;;;;;21.67;2.72;;;10.20;70.20;;;;;;9178848;19;20391;-68
2022/03/17 10:17:53;;;;;;;17.38;2.33;;;10.20;70.20;;;;;;9185249;19;20006;-69
2022/03/17 10:21:10;;;;;;;15.88;3.30;;;10.30;70.20;;;;;;9196139;19;20010;-68
2022/03/17 10:24:16;;;;;;;16.85;2.90;;;10.30;70.10;;;;;;9198717;19;20025;-70
2022/03/17 10:27:45;;;;;;;21.75;3.00;;;10.30;70.10;;;;;;9196304;19;20086;-68
2022/03/17 10:30:50;;;;;;;19.60;2.58;;;10.30;70.10;;;;;;9197292;19;20078;-69
2022/03/17 10:33:55;;;;;;;19.67;2.15;;;10.40;70.10;;;;;;9193470;19;20018;-67
2022/03/17 10:37:12;;;;;;;17.70;2.50;;;10.30;70.00;;;;;;9184437;19;20029;-68
2022/03/17 10:40:17;;;;;;;8.90;1.92;;;10.30;70.00;;;;;;9186575;19;20379;-68
2022/03/17 10:43:29;;;;;;;15.32;2.05;;;10.30;70.00;;;;;;9195454;19;20360;-69
2022/03/17 10:46:33;;;;;;;7.97;1.85;;;10.30;70.00;;;;;;9196244;19;20015;-68
2022/03/17 10:49:39;;;;;;;11.98;1.95;;;10.40;70.00;;;;;;9196145;19;20025;-68
2022/03/17 10:52:53;;;;;;;10.52;1.67;;;10.40;70.00;;;;;;9196912;19;20014;-69
2022/03/17 10:56:12;;;;;;;12.40;1.90;;;10.40;70.10;;;;;;9195520;19;20030;-68
2022/03/17 10:59:22;;;;;;;7.85;1.85;;;10.50;70.10;;;;;;9191964;19;20048;-69
2022/03/17 11:02:27;;;;;;;10.15;2.22;;;10.50;70.10;;;;;;9196368;19;20029;-69
2022/03/17 11:05:32;;;;;;;10.90;1.63;;;10.60;70.00;;;;;;9193003;19;20433;-70
2022/03/17 11:08:37;;;;;;;13.27;1.83;;;10.60;69.90;;;;;;9192011;19;20021;-69
2022/03/17 11:11:42;;;;;;;22.90;3.53;;;10.60;69.90;;;;;;9193917;19;20359;-69
2022/03/17 11:14:53;;;;;;;11.80;2.05;;;10.70;69.90;;;;;;9196291;19;20022;-67
2022/03/17 11:18:04;;;;;;;11.98;1.83;;;10.80;69.90;;;;;;9195774;19;20014;-68
2022/03/17 11:21:16;;;;;;;14.00;2.08;;;10.90;69.80;;;;;;9196865;19;20068;-69
2022/03/17 11:24:23;;;;;;;12.10;2.08;;;10.90;69.80;;;;;;9194956;19;20418;-69
2022/03/17 11:27:28;;;;;;;8.60;1.67;;;11.00;69.80;;;;;;9192962;19;20613;-69
2022/03/17 11:30:49;;;;;;;17.50;2.50;;;11.10;69.70;;;;;;9187638;19;20573;-69
2022/03/17 11:34:02;;;;;;;16.10;3.13;;;11.10;69.80;;;;;;9182472;19;20376;-68
2022/03/17 11:37:26;;;;;;;11.32;2.30;;;11.20;69.70;;;;;;9186617;19;20010;-70
2022/03/17 11:40:31;;;;;;;12.70;2.13;;;11.30;69.70;;;;;;9187374;19;20025;-70
2022/03/17 11:44:05;;;;;;;8.98;1.73;;;11.40;69.60;;;;;;9186814;19;20368;-70
2022/03/17 11:47:28;;;;;;;12.45;2.33;;;11.50;69.60;;;;;;9185713;19;20014;-68
2022/03/17 11:50:53;;;;;;;7.70;2.20;;;11.50;69.40;;;;;;9184829;19;20074;-69
2022/03/17 11:54:06;;;;;;;11.63;2.30;;;11.60;69.30;;;;;;9180616;19;20018;-70
2022/03/17 11:57:13;;;;;;;7.85;1.85;;;11.70;69.30;;;;;;9186065;19;20027;-68
2022/03/17 12:00:21;;;;;;;14.27;2.13;;;11.80;69.20;;;;;;9182792;19;20033;-68
2022/03/17 12:03:36;;;;;;;9.52;1.70;;;11.80;69.00;;;;;;9186280;19;20495;-68
2022/03/17 12:06:42;;;;;;;7.80;1.75;;;11.90;69.00;;;;;;9179560;19;20484;-68
2022/03/17 12:09:48;;;;;;;14.15;2.70;;;11.90;68.90;;;;;;9181701;19;20014;-68
2022/03/17 12:12:53;;;;;;;12.52;1.88;;;11.90;68.70;;;;;;9183266;19;20022;-68
2022/03/17 12:15:58;;;;;;;8.88;1.95;;;12.00;68.70;;;;;;9185104;19;20018;-68
2022/03/17 12:19:06;;;;;;;4.82;1.10;;;12.10;68.60;;;;;;9177099;19;20022;-70
2022/03/17 12:22:16;;;;;;;15.35;1.80;;;12.20;68.40;;;;;;9183476;19;20022;-68
2022/03/17 12:25:32;;;;;;;14.07;2.33;;;12.20;68.20;;;;;;9183408;19;20021;-68
2022/03/17 12:28:45;;;;;;;15.77;1.83;;;12.30;68.20;;;;;;9184074;19;20356;-67
2022/03/17 12:31:50;;;;;;;12.90;1.83;;;12.40;67.90;;;;;;9184711;19;20467;-69
2022/03/17 12:34:59;;;;;;;8.75;2.13;;;12.40;67.80;;;;;;9179118;19;20086;-68
2022/03/17 12:38:07;;;;;;;10.48;2.22;;;12.50;67.60;;;;;;9182314;19;20018;-68
2022/03/17 12:41:15;;;;;;;8.23;1.30;;;12.60;67.60;;;;;;9181459;19;20010;-68
2022/03/17 12:44:24;;;;;;;13.27;3.08;;;12.60;67.40;;;;;;9182270;19;20078;-68
2022/03/17 12:47:31;;;;;;;10.05;1.48;;;12.70;67.30;;;;;;9182141;19;20019;-68
2022/03/17 12:50:39;;;;;;;9.65;1.70;;;12.70;67.10;;;;;;9182078;19;20365;-68
2022/03/17 12:53:44;;;;;;;9.88;1.85;;;12.80;66.90;;;;;;9182223;19;20006;-68
2022/03/17 12:56:52;;;;;;;13.20;2.22;;;12.80;66.80;;;;;;9181271;19;20103;-68
2022/03/17 12:59:57;;;;;;;22.27;2.33;;;12.90;66.70;;;;;;9182894;19;20034;-68
2022/03/17 13:03:03;;;;;;;11.65;2.60;;;13.00;66.70;;;;;;9184106;19;20104;-68
2022/03/17 13:09:33;;;;;;;9.27;1.48;;;13.00;66.30;;;;;;9178137;19;20018;-68
2022/03/17 13:15:56;;;;;;;16.75;2.05;;;13.10;66.10;;;;;;9182706;19;20037;-68
2022/03/17 13:19:01;;;;;;;7.47;1.45;;;13.20;66.00;;;;;;9178933;19;20018;-68
2022/03/17 13:22:10;;;;;;;8.43;2.70;;;13.20;65.80;;;;;;9178043;19;20026;-68
2022/03/17 13:25:17;;;;;;;9.15;1.50;;;13.20;65.50;;;;;;9180890;19;20026;-67
2022/03/17 13:28:22;;;;;;;7.65;2.00;;;13.30;65.50;;;;;;9182144;19;20018;-67
2022/03/17 13:31:34;;;;;;;15.45;1.77;;;13.30;65.50;;;;;;9181439;19;20010;-65
2022/03/17 13:34:40;;;;;;;10.82;2.20;;;13.30;65.30;;;;;;9178229;19;20014;-66
2022/03/17 13:37:49;;;;;;;12.70;1.65;;;13.40;65.40;;;;;;9181094;19;20780;-69
2022/03/17 13:40:56;;;;;;;10.50;2.33;;;13.40;65.20;;;;;;9178931;19;20022;-70
2022/03/17 13:44:05;;;;;;;8.13;1.60;;;13.50;65.20;;;;;;9178555;19;20018;-69
2022/03/17 13:47:15;;;;;;;10.18;2.13;;;13.50;64.80;;;;;;9178687;19;20018;-68
2022/03/17 13:50:25;;;;;;;11.63;2.00;;;13.60;64.70;;;;;;9178148;19;20023;-68
2022/03/17 13:53:34;;;;;;;12.90;1.77;;;13.60;64.60;;;;;;9177590;19;20014;-68
2022/03/17 13:56:39;;;;;;;10.07;1.33;;;13.70;64.50;;;;;;9182046;19;20010;-69
2022/03/17 13:59:44;;;;;;;9.55;1.88;;;13.80;64.50;;;;;;9182063;19;20011;-70
2022/03/17 14:03:04;;;;;;;8.90;2.38;;;13.80;64.30;;;;;;9181038;19;20015;-70
2022/03/17 14:06:13;;;;;;;8.27;1.52;;;13.80;64.10;;;;;;9178903;19;20048;-67
2022/03/17 14:09:21;;;;;;;8.13;1.30;;;13.90;63.90;;;;;;9179771;19;20015;-70
2022/03/17 14:12:26;;;;;;;8.20;1.75;;;14.00;63.70;;;;;;9181043;19;20018;-70
2022/03/17 14:15:31;;;;;;;6.68;1.42;;;14.00;63.50;;;;;;9179781;19;20037;-70
2022/03/17 14:18:36;;;;;;;9.10;1.77;;;14.00;63.30;;;;;;9179465;19;20074;-67
2022/03/17 14:24:10;;;;;;;7.80;1.35;;;14.10;63.90;;;;;;9180905;19;20038;-69
2022/03/17 14:25:07;;;;;;;9.95;1.60;;;14.10;63.10;;;;;;9178681;19;20022;-71
2022/03/17 14:28:12;;;;;;;9.07;1.80;;;14.10;62.90;;;;;;9179374;19;20384;-67
2022/03/17 14:31:17;;;;;;;9.77;1.67;;;14.20;62.90;;;;;;9179597;19;20018;-69
2022/03/17 14:34:25;;;;;;;7.30;1.55;;;14.20;62.70;;;;;;9175593;19;20018;-67
2022/03/17 14:37:32;;;;;;;5.85;1.58;;;14.20;62.60;;;;;;9179193;19;20490;-68
2022/03/17 14:40:40;;;;;;;7.53;1.65;;;14.10;62.30;;;;;;9180066;19;20022;-68
2022/03/17 14:43:46;;;;;;;12.00;1.45;;;14.10;62.10;;;;;;9174155;19;20010;-69
2022/03/17 14:46:51;;;;;;;13.90;1.75;;;14.20;62.10;;;;;;9179670;19;20006;-69
2022/03/17 14:49:56;;;;;;;8.23;1.58;;;14.10;62.10;;;;;;9177838;19;20044;-69
2022/03/17 14:53:02;;;;;;;7.70;1.50;;;14.10;62.00;;;;;;9177650;19;20018;-69
2022/03/17 14:56:11;;;;;;;6.07;1.48;;;14.10;61.80;;;;;;9179636;19;20014;-70
2022/03/17 14:59:16;;;;;;;7.82;1.45;;;14.10;61.70;;;;;;9173201;19;20025;-70
2022/03/17 15:02:21;;;;;;;12.18;1.60;;;14.00;61.70;;;;;;9177718;19;20030;-69
2022/03/17 15:05:27;;;;;;;13.18;1.80;;;14.00;61.70;;;;;;9183833;19;20022;-68
2022/03/17 15:08:32;;;;;;;9.40;1.67;;;14.00;61.60;;;;;;9184920;19;20022;-69
2022/03/17 15:11:39;;;;;;;6.80;1.60;;;14.00;61.50;;;;;;9187860;19;20662;-69
2022/03/17 15:14:44;;;;;;;7.65;1.33;;;14.00;61.40;;;;;;9187939;19;20455;-68
2022/03/17 15:17:50;;;;;;;9.43;1.40;;;14.00;61.30;;;;;;9187318;19;20017;-70
2022/03/17 15:20:58;;;;;;;10.65;1.67;;;13.90;61.20;;;;;;9186412;19;20025;-69
2022/03/17 15:24:03;;;;;;;9.50;1.70;;;13.90;61.20;;;;;;9185558;19;20014;-70
2022/03/17 15:30:29;;;;;;;13.38;2.15;;;13.90;61.00;;;;;;9182885;19;20017;-69
2022/03/17 15:33:34;;;;;;;5.50;1.35;;;13.90;61.00;;;;;;9182043;19;20481;-69
2022/03/17 15:36:39;;;;;;;8.57;1.80;;;13.80;60.90;;;;;;9185199;19;20018;-69
2022/03/17 15:39:44;;;;;;;6.85;1.30;;;13.80;60.80;;;;;;9185528;19;20126;-69
2022/03/17 15:42:52;;;;;;;7.90;1.38;;;13.80;60.80;;;;;;9185296;19;20010;-69
2022/03/17 15:45:57;;;;;;;8.35;1.58;;;13.80;60.60;;;;;;9182672;19;20476;-70
2022/03/17 15:49:02;;;;;;;5.20;1.40;;;13.70;60.60;;;;;;9186042;19;20470;-70
2022/03/17 15:52:08;;;;;;;6.13;1.38;;;13.70;60.50;;;;;;9186930;19;20014;-69
2022/03/17 15:55:13;;;;;;;11.68;2.55;;;13.70;60.50;;;;;;9184038;19;20014;-69
2022/03/17 15:58:21;;;;;;;6.25;1.85;;;13.60;60.40;;;;;;9184102;19;20376;-68
2022/03/17 16:01:26;;;;;;;5.40;1.23;;;13.60;60.20;;;;;;9183664;19;20014;-69
2022/03/17 16:04:31;;;;;;;6.63;1.10;;;13.60;60.30;;;;;;9185258;19;20020;-69
2022/03/17 16:07:37;;;;;;;7.22;1.25;;;13.50;60.20;;;;;;9179347;19;20015;-68
2022/03/17 16:17:20;;;;;;;8.05;1.38;;;13.40;60.10;;;;;;9172317;19;20014;-70
2022/03/17 16:20:25;;;;;;;6.68;1.38;;;13.30;60.10;;;;;;9182585;19;20015;-68
2022/03/17 16:23:34;;;;;;;7.55;1.55;;;13.30;60.10;;;;;;9176979;19;20027;-71
2022/03/17 16:26:39;;;;;;;7.53;1.10;;;13.20;60.10;;;;;;9170709;19;20018;-69
2022/03/17 16:29:47;;;;;;;6.88;1.30;;;13.10;60.00;;;;;;9167838;19;20022;-70
2022/03/17 16:32:52;;;;;;;10.13;1.98;;;13.10;59.90;;;;;;9168077;19;20025;-70